createdAt,value
2022-08-26T00:02:19.286Z,80.52
2022-08-26T00:04:52.055Z,80.78
2022-08-26T00:07:21.843Z,80.78
2022-08-26T00:09:54.490Z,80.94
2022-08-26T00:12:37.349Z,81.12
2022-08-26T00:15:11.081Z,81.62
2022-08-26T00:17:40.370Z,81.65
2022-08-26T00:20:10.812Z,81.74
2022-08-26T00:22:41.605Z,81.67
2022-08-26T00:25:12.180Z,81.74
2022-08-26T00:27:40.455Z,82.01
2022-08-26T00:30:15.088Z,81.82
2022-08-26T00:32:49.577Z,81.76
2022-08-26T00:35:18.791Z,81.91
2022-08-26T00:37:51.244Z,82.04
2022-08-26T00:40:24.901Z,82.15
2022-08-26T00:42:53.427Z,81.76
2022-08-26T00:45:21.905Z,81.97
2022-08-26T00:47:54.716Z,82.07
2022-08-26T00:50:26.240Z,82.12
2022-08-26T00:52:58.808Z,82.32
2022-08-26T00:55:37.970Z,82.30
2022-08-26T00:58:07.745Z,82.35
2022-08-26T01:00:36.514Z,82.33
2022-08-26T01:03:07.555Z,82.23
2022-08-26T01:05:44.100Z,82.04
2022-08-26T01:08:13.900Z,82.10
2022-08-26T01:10:45.337Z,82.20
2022-08-26T01:13:16.573Z,82.06
2022-08-26T01:15:52.178Z,82.13
2022-08-26T01:18:21.822Z,82.02
2022-08-26T01:21:00.026Z,82.30
2022-08-26T01:23:35.527Z,82.37
2022-08-26T01:26:19.576Z,82.38
2022-08-26T01:28:51.829Z,82.45
2022-08-26T01:31:26.784Z,82.42
2022-08-26T01:34:02.270Z,82.54
2022-08-26T01:36:31.804Z,82.57
2022-08-26T01:39:01.519Z,82.65
2022-08-26T01:41:40.554Z,82.84
2022-08-26T01:44:17.438Z,82.76
2022-08-26T01:46:49.359Z,82.76
2022-08-26T01:49:21.136Z,82.78
2022-08-26T01:51:54.456Z,82.76
2022-08-26T01:54:25.986Z,82.90
2022-08-26T01:56:55.946Z,82.93
2022-08-26T01:59:25.346Z,83.15
2022-08-26T02:01:55.922Z,83.16
2022-08-26T02:04:31.197Z,83.21
2022-08-26T02:07:00.028Z,83.26
2022-08-26T02:09:32.920Z,83.21
2022-08-26T02:12:12.368Z,83.25
2022-08-26T02:14:44.595Z,83.12
2022-08-26T02:17:18.343Z,82.94
2022-08-26T02:19:51.148Z,83.01
2022-08-26T02:22:24.688Z,82.94
2022-08-26T02:24:57.371Z,82.98
2022-08-26T02:27:32.214Z,82.68
2022-08-26T02:30:08.016Z,82.61
2022-08-26T02:32:36.558Z,82.33
2022-08-26T02:35:07.517Z,82.55
2022-08-26T02:37:35.850Z,82.68
2022-08-26T02:40:10.451Z,82.75
2022-08-26T02:42:39.042Z,82.88
2022-08-26T02:45:09.504Z,82.82
2022-08-26T02:47:51.366Z,83.05
2022-08-26T02:50:22.268Z,82.85
2022-08-26T02:52:51.128Z,83.00
2022-08-26T02:55:21.124Z,83.14
2022-08-26T02:57:53.190Z,83.00
2022-08-26T03:00:24.807Z,82.95
2022-08-26T03:02:54.440Z,82.80
2022-08-26T03:05:25.055Z,82.99
2022-08-26T03:07:54.159Z,83.01
2022-08-26T03:10:23.877Z,83.10
2022-08-26T03:12:54.356Z,82.97
2022-08-26T03:15:22.714Z,82.81
2022-08-26T03:17:50.966Z,82.53
2022-08-26T03:20:19.783Z,82.68
2022-08-26T03:22:48.277Z,82.54
2022-08-26T03:25:18.482Z,82.55
2022-08-26T03:27:51.312Z,82.62
2022-08-26T03:30:37.632Z,82.91
2022-08-26T03:33:11.463Z,82.87
2022-08-26T03:35:42.905Z,83.22
2022-08-26T03:38:17.553Z,83.43
2022-08-26T03:40:45.966Z,83.36
2022-08-26T03:43:17.258Z,83.38
2022-08-26T03:45:46.094Z,83.56
2022-08-26T03:48:15.155Z,83.65
2022-08-26T03:50:46.982Z,83.62
2022-08-26T03:53:17.069Z,83.84
2022-08-26T03:55:54.825Z,83.40
2022-08-26T03:58:38.157Z,83.61
2022-08-26T04:01:09.522Z,83.11
2022-08-26T04:03:55.645Z,83.18
2022-08-26T04:06:24.415Z,82.70
2022-08-26T04:08:52.745Z,82.95
2022-08-26T04:11:23.530Z,82.92
2022-08-26T04:13:54.310Z,83.17
2022-08-26T04:16:28.548Z,83.23
2022-08-26T04:18:57.202Z,82.94
2022-08-26T04:21:26.812Z,82.90
2022-08-26T04:23:58.430Z,82.95
2022-08-26T04:26:27.804Z,82.96
2022-08-26T04:28:57.485Z,83.05
2022-08-26T04:31:31.375Z,83.26
2022-08-26T04:34:00.655Z,82.97
2022-08-26T04:36:32.531Z,83.20
2022-08-26T04:39:07.087Z,83.06
2022-08-26T04:41:35.473Z,83.04
2022-08-26T04:44:09.019Z,82.84
2022-08-26T04:46:39.950Z,82.54
2022-08-26T04:49:12.702Z,82.44
2022-08-26T04:51:41.281Z,82.61
2022-08-26T04:54:16.403Z,82.42
2022-08-26T04:56:47.331Z,82.20
2022-08-26T04:59:22.231Z,82.42
2022-08-26T05:01:53.367Z,82.24
2022-08-26T05:04:25.290Z,82.15
2022-08-26T05:06:59.235Z,82.46
2022-08-26T05:09:31.397Z,82.47
2022-08-26T05:11:59.686Z,82.15
2022-08-26T05:14:34.752Z,82.09
2022-08-26T05:17:03.912Z,82.11
2022-08-26T05:19:36.250Z,81.60
2022-08-26T05:22:07.336Z,81.69
2022-08-26T05:24:38.205Z,81.43
2022-08-26T05:27:11.455Z,81.30
2022-08-26T05:29:42.466Z,81.25
2022-08-26T05:32:12.729Z,81.10
2022-08-26T05:34:42.890Z,81.25
2022-08-26T05:37:11.397Z,81.23
2022-08-26T05:39:43.427Z,81.26
2022-08-26T05:42:17.792Z,80.97
2022-08-26T05:44:53.894Z,81.15
2022-08-26T05:47:24.256Z,80.94
2022-08-26T05:49:53.342Z,80.76
2022-08-26T05:52:25.856Z,80.76
2022-08-26T05:54:54.396Z,80.84
2022-08-26T05:57:23.787Z,80.73
2022-08-26T05:59:53.385Z,80.90
2022-08-26T06:02:21.902Z,81.06
2022-08-26T06:04:50.557Z,81.01
2022-08-26T06:07:42.131Z,80.92
2022-08-26T06:10:31.515Z,80.77
2022-08-26T06:13:09.177Z,80.63
2022-08-26T06:15:43.302Z,80.57
2022-08-26T06:18:15.733Z,80.71
2022-08-26T06:20:53.709Z,80.97
2022-08-26T06:23:44.452Z,80.80
2022-08-26T06:26:16.018Z,80.72
2022-08-26T06:28:45.794Z,80.38
2022-08-26T06:31:18.313Z,80.29
2022-08-26T06:33:47.166Z,79.94
2022-08-26T06:36:21.035Z,80.04
2022-08-26T06:38:51.327Z,80.17
2022-08-26T06:41:21.240Z,80.28
2022-08-26T06:43:49.751Z,80.58
2022-08-26T06:46:21.677Z,80.14
2022-08-26T06:48:50.842Z,80.14
2022-08-26T06:51:22.327Z,80.03
2022-08-26T06:53:59.208Z,79.89
2022-08-26T06:56:35.905Z,79.70
2022-08-26T06:59:07.798Z,79.97
2022-08-26T07:01:45.407Z,79.98
2022-08-26T07:04:22.225Z,79.66
2022-08-26T07:06:54.857Z,79.89
2022-08-26T07:09:26.323Z,80.08
2022-08-26T07:11:57.520Z,80.05
2022-08-26T07:14:28.905Z,80.01
2022-08-26T07:17:02.269Z,79.63
2022-08-26T07:19:31.771Z,80.02
2022-08-26T07:22:03.878Z,79.26
2022-08-26T07:24:42.348Z,79.01
2022-08-26T07:27:14.265Z,78.27
2022-08-26T07:29:43.498Z,77.98
2022-08-26T07:32:14.748Z,77.47
2022-08-26T07:34:44.916Z,77.62
2022-08-26T07:37:13.487Z,77.11
2022-08-26T07:39:44.400Z,76.23
2022-08-26T07:42:14.896Z,75.99
2022-08-26T07:44:47.149Z,76.46
2022-08-26T07:47:24.679Z,75.99
2022-08-26T07:49:54.924Z,76.29
2022-08-26T07:52:27.019Z,76.70
2022-08-26T07:54:56.504Z,78.24
2022-08-26T07:57:29.348Z,79.52
2022-08-26T08:00:00.708Z,80.45
2022-08-26T08:02:34.028Z,81.22
2022-08-26T08:05:10.065Z,81.51
2022-08-26T08:07:44.749Z,81.62
2022-08-26T08:10:17.097Z,81.46
2022-08-26T08:12:51.740Z,81.01
2022-08-26T08:15:21.990Z,80.62
2022-08-26T08:17:52.175Z,79.75
2022-08-26T08:20:22.131Z,79.34
2022-08-26T08:22:55.094Z,78.50
2022-08-26T08:25:26.617Z,76.87
2022-08-26T08:27:54.917Z,76.59
2022-08-26T08:30:25.882Z,75.79
2022-08-26T08:32:59.252Z,75.32
2022-08-26T08:35:30.508Z,74.58
2022-08-26T08:38:04.157Z,74.31
2022-08-26T08:40:33.291Z,74.03
2022-08-26T08:43:06.248Z,73.17
2022-08-26T08:45:38.466Z,73.32
2022-08-26T08:48:27.803Z,73.57
2022-08-26T08:51:07.652Z,73.57
2022-08-26T08:53:41.735Z,73.19
2022-08-26T08:56:19.998Z,73.45
2022-08-26T08:58:57.360Z,73.72
2022-08-26T09:01:47.069Z,73.72
2022-08-26T09:04:52.555Z,73.95
2022-08-26T09:07:24.542Z,74.21
2022-08-26T09:09:59.251Z,73.77
2022-08-26T09:12:33.346Z,74.19
2022-08-26T09:15:07.459Z,73.50
2022-08-26T09:17:49.157Z,72.58
2022-08-26T09:20:33.521Z,72.82
2022-08-26T09:23:01.834Z,72.22
2022-08-26T09:25:30.691Z,71.97
2022-08-26T09:28:00.565Z,72.30
2022-08-26T09:30:34.921Z,72.03
2022-08-26T09:33:06.602Z,72.18
2022-08-26T09:35:46.330Z,71.77
2022-08-26T09:38:26.591Z,72.74
2022-08-26T09:40:59.391Z,71.39
2022-08-26T09:43:29.506Z,70.64
2022-08-26T09:46:13.549Z,70.17
2022-08-26T09:48:42.742Z,70.12
2022-08-26T09:51:34.400Z,69.54
2022-08-26T09:54:05.709Z,69.84
2022-08-26T09:56:42.985Z,69.38
2022-08-26T09:59:12.049Z,69.74
2022-08-26T10:01:43.370Z,69.39
2022-08-26T10:04:15.020Z,69.41
2022-08-26T10:06:57.898Z,69.02
2022-08-26T10:09:28.118Z,68.13
2022-08-26T10:12:05.509Z,67.71
2022-08-26T10:14:36.520Z,67.49
2022-08-26T10:17:10.658Z,68.23
2022-08-26T10:19:57.009Z,68.38
2022-08-26T10:22:31.782Z,68.93
2022-08-26T10:25:06.669Z,69.36
2022-08-26T10:27:52.797Z,69.58
2022-08-26T10:30:25.578Z,68.90
2022-08-26T10:32:58.902Z,69.22
2022-08-26T10:35:31.118Z,69.00
2022-08-26T10:38:05.701Z,68.63
2022-08-26T10:40:46.522Z,68.01
2022-08-26T10:43:23.791Z,68.56
2022-08-26T10:45:55.982Z,67.56
2022-08-26T10:48:35.538Z,67.78
2022-08-26T10:51:08.598Z,67.94
2022-08-26T10:53:46.708Z,67.39
2022-08-26T10:56:30.776Z,67.06
2022-08-26T10:59:12.406Z,65.70
2022-08-26T11:01:47.224Z,67.79
2022-08-26T11:04:52.114Z,67.34
2022-08-26T11:07:46.177Z,67.03
2022-08-26T11:10:47.556Z,67.41
2022-08-26T11:13:19.017Z,66.01
2022-08-26T11:16:01.373Z,66.69
2022-08-26T11:18:45.734Z,65.95
2022-08-26T11:21:49.489Z,66.15
2022-08-26T11:24:41.783Z,66.51
2022-08-26T11:27:15.530Z,66.65
2022-08-26T11:30:04.552Z,65.40
2022-08-26T11:32:50.278Z,65.14
2022-08-26T11:35:47.884Z,65.75
2022-08-26T11:38:29.337Z,67.27
2022-08-26T11:41:09.186Z,66.55
2022-08-26T11:43:39.829Z,66.72
2022-08-26T11:46:12.842Z,66.36
2022-08-26T11:48:50.934Z,66.64
2022-08-26T11:51:23.978Z,66.78
2022-08-26T11:53:52.474Z,66.34
2022-08-26T11:56:28.777Z,65.95
2022-08-26T11:59:04.707Z,67.55
2022-08-26T12:01:39.364Z,65.31
2022-08-26T12:04:14.784Z,65.99
2022-08-26T12:06:51.144Z,66.89
2022-08-26T12:09:23.825Z,66.49
2022-08-26T12:12:12.161Z,66.32
2022-08-26T12:14:42.638Z,66.81
2022-08-26T12:17:16.788Z,66.69
2022-08-26T12:19:45.501Z,66.59
2022-08-26T12:22:20.978Z,65.86
2022-08-26T12:24:53.093Z,65.95
2022-08-26T12:27:24.504Z,66.54
2022-08-26T12:30:12.205Z,66.33
2022-08-26T12:32:55.138Z,66.71
2022-08-26T12:35:26.896Z,66.38
2022-08-26T12:37:56.155Z,65.86
2022-08-26T12:40:34.385Z,67.08
2022-08-26T12:43:05.390Z,65.82
2022-08-26T12:45:36.766Z,65.40
2022-08-26T12:48:10.820Z,65.14
2022-08-26T12:50:45.448Z,65.61
2022-08-26T12:53:21.139Z,65.82
2022-08-26T12:55:55.559Z,65.43
2022-08-26T12:58:27.543Z,64.85
2022-08-26T13:00:57.892Z,65.31
2022-08-26T13:03:46.271Z,65.62
2022-08-26T13:06:30.008Z,66.17
2022-08-26T13:09:00.680Z,65.60
2022-08-26T13:11:31.579Z,66.18
2022-08-26T13:14:02.177Z,66.25
2022-08-26T13:16:37.577Z,66.19
2022-08-26T13:19:10.630Z,66.04
2022-08-26T13:21:42.976Z,65.93
2022-08-26T13:24:13.775Z,65.88
2022-08-26T13:26:43.145Z,66.82
2022-08-26T13:29:11.984Z,66.76
2022-08-26T13:31:42.087Z,66.50
2022-08-26T13:34:15.511Z,66.75
2022-08-26T13:36:45.419Z,66.40
2022-08-26T13:39:14.601Z,65.72
2022-08-26T13:41:43.315Z,66.31
2022-08-26T13:44:12.450Z,66.65
2022-08-26T13:46:41.777Z,64.21
2022-08-26T13:49:11.967Z,64.39
2022-08-26T13:51:42.903Z,65.18
2022-08-26T13:54:11.219Z,65.78
2022-08-26T13:56:41.884Z,65.98
2022-08-26T13:59:13.258Z,65.85
2022-08-26T14:01:44.633Z,65.86
2022-08-26T14:04:14.340Z,66.08
2022-08-26T14:06:44.576Z,65.89
2022-08-26T14:09:13.914Z,64.65
2022-08-26T14:11:54.462Z,65.33
2022-08-26T14:14:32.964Z,64.18
2022-08-26T14:17:02.167Z,65.04
2022-08-26T14:19:32.541Z,63.60
2022-08-26T14:22:01.770Z,63.15
2022-08-26T14:24:30.800Z,63.37
2022-08-26T14:27:01.914Z,64.02
2022-08-26T14:29:30.231Z,62.53
2022-08-26T14:32:02.497Z,61.42
2022-08-26T14:34:35.703Z,60.45
2022-08-26T14:37:08.266Z,85.30
2022-08-26T14:39:38.631Z,89.58
2022-08-26T14:42:07.605Z,89.47
2022-08-26T14:44:39.999Z,92.06
2022-08-26T14:47:11.235Z,92.18
2022-08-26T14:49:40.982Z,91.11
2022-08-26T14:52:09.373Z,90.02
2022-08-26T14:54:37.832Z,92.92
2022-08-26T14:57:10.669Z,94.20
2022-08-26T14:59:45.490Z,94.12
2022-08-26T15:02:32.476Z,92.10
2022-08-26T15:05:08.548Z,89.43
2022-08-26T15:07:38.186Z,88.89
2022-08-26T15:10:09.294Z,90.01
2022-08-26T15:12:39.263Z,90.34
2022-08-26T15:15:09.377Z,89.66
2022-08-26T15:17:38.563Z,92.29
2022-08-26T15:20:10.293Z,93.56
2022-08-26T15:22:40.949Z,94.46
2022-08-26T15:25:10.501Z,95.26
2022-08-26T15:27:40.113Z,93.85
2022-08-26T15:30:16.639Z,94.40
2022-08-26T15:32:45.406Z,94.31
2022-08-26T15:35:15.076Z,90.76
2022-08-26T15:37:43.460Z,90.27
2022-08-26T15:40:12.582Z,90.78
2022-08-26T15:42:41.737Z,89.98
2022-08-26T15:45:10.777Z,90.15
2022-08-26T15:47:48.405Z,91.89
2022-08-26T15:50:31.058Z,88.57
2022-08-26T15:53:01.432Z,92.57
2022-08-26T15:55:31.800Z,99.06
2022-08-26T15:58:00.978Z,101.18
2022-08-26T16:00:30.235Z,100.80
2022-08-26T16:02:58.505Z,101.68
2022-08-26T16:05:28.314Z,101.99
2022-08-26T16:08:05.164Z,102.15
2022-08-26T16:10:38.389Z,101.83
2022-08-26T16:13:09.441Z,103.95
2022-08-26T16:15:43.511Z,104.26
2022-08-26T16:18:13.121Z,103.61
2022-08-26T16:21:06.555Z,103.72
2022-08-26T16:23:38.484Z,104.63
2022-08-26T16:26:16.435Z,105.36
2022-08-26T16:28:45.174Z,105.08
2022-08-26T16:31:15.831Z,101.96
2022-08-26T16:33:47.960Z,100.38
2022-08-26T16:36:18.346Z,99.51
2022-08-26T16:38:52.876Z,102.06
2022-08-26T16:41:21.422Z,104.70
2022-08-26T16:43:50.580Z,105.42
2022-08-26T16:46:19.166Z,105.72
2022-08-26T16:48:48.877Z,106.35
2022-08-26T16:51:23.426Z,106.13
2022-08-26T16:53:53.560Z,106.70
2022-08-26T16:56:34.009Z,106.40
2022-08-26T16:59:05.224Z,106.97
2022-08-26T17:01:33.842Z,106.75
2022-08-26T17:04:02.354Z,106.43
2022-08-26T17:06:35.152Z,106.82
2022-08-26T17:09:03.538Z,106.91
2022-08-26T17:11:34.805Z,106.66
2022-08-26T17:14:03.198Z,106.60
2022-08-26T17:16:31.567Z,106.65
2022-08-26T17:19:01.447Z,107.13
2022-08-26T17:21:30.132Z,107.03
2022-08-26T17:24:04.887Z,106.59
2022-08-26T17:26:33.809Z,106.30
2022-08-26T17:29:06.256Z,107.61
2022-08-26T17:31:38.592Z,107.01
2022-08-26T17:34:12.790Z,107.45
2022-08-26T17:36:41.315Z,106.65
2022-08-26T17:39:12.294Z,107.07
2022-08-26T17:41:41.305Z,107.37
2022-08-26T17:44:12.400Z,107.37
2022-08-26T17:46:40.859Z,107.72
2022-08-26T17:49:11.310Z,106.70
2022-08-26T17:51:41.017Z,107.49
2022-08-26T17:54:13.482Z,107.38
2022-08-26T17:56:42.111Z,107.64
2022-08-26T17:59:13.178Z,107.65
2022-08-26T18:01:44.947Z,107.23
2022-08-26T18:04:14.816Z,106.91
2022-08-26T18:06:44.066Z,107.34
2022-08-26T18:09:17.399Z,107.47
2022-08-26T18:11:45.621Z,107.82
2022-08-26T18:14:13.897Z,107.01
2022-08-26T18:16:42.232Z,107.23
2022-08-26T18:19:15.745Z,107.46
2022-08-26T18:21:44.275Z,106.79
2022-08-26T18:24:14.377Z,107.46
2022-08-26T18:26:48.591Z,107.21
2022-08-26T18:29:18.215Z,107.53
2022-08-26T18:31:46.758Z,107.53
2022-08-26T18:34:19.447Z,108.20
2022-08-26T18:36:48.172Z,107.86
2022-08-26T18:39:19.272Z,107.07
2022-08-26T18:41:55.802Z,106.05
2022-08-26T18:44:27.104Z,107.56
2022-08-26T18:46:56.560Z,105.50
2022-08-26T18:49:27.129Z,106.61
2022-08-26T18:51:58.589Z,106.44
2022-08-26T18:54:31.948Z,106.85
2022-08-26T18:57:00.753Z,105.13
2022-08-26T18:59:30.480Z,105.43
2022-08-26T19:01:59.245Z,106.16
2022-08-26T19:04:29.979Z,106.05
2022-08-26T19:07:01.161Z,105.63
2022-08-26T19:09:34.147Z,105.77
2022-08-26T19:12:06.039Z,105.41
2022-08-26T19:14:36.379Z,104.97
2022-08-26T19:17:07.722Z,104.89
2022-08-26T19:19:36.048Z,104.37
2022-08-26T19:22:04.549Z,102.28
2022-08-26T19:24:40.716Z,103.61
2022-08-26T19:27:14.705Z,103.01
2022-08-26T19:29:46.728Z,102.19
2022-08-26T19:33:10.628Z,101.95
2022-08-26T19:35:47.446Z,100.55
2022-08-26T19:43:03.978Z,100.43
2022-08-26T19:55:03.144Z,97.04
2022-08-26T19:57:57.934Z,96.94
2022-08-26T20:00:39.740Z,96.54
2022-08-26T20:03:31.481Z,96.54
2022-08-26T20:21:04.390Z,94.19
2022-08-26T20:50:13.910Z,93.13
2022-08-26T21:24:53.897Z,91.24
2022-08-26T21:27:26.213Z,91.31
2022-08-26T21:30:04.405Z,91.63
2022-08-26T21:32:33.100Z,91.05
2022-08-26T21:35:02.385Z,90.22
2022-08-26T21:37:30.807Z,90.34
2022-08-26T21:40:02.001Z,90.33
2022-08-26T21:42:35.473Z,89.89
2022-08-26T21:45:23.781Z,89.38
2022-08-26T21:47:52.433Z,89.85
2022-08-26T21:50:21.413Z,89.35
2022-08-26T21:52:51.802Z,89.41
2022-08-26T21:55:20.440Z,89.09
2022-08-26T21:57:48.855Z,89.02
2022-08-26T22:00:19.740Z,89.12
2022-08-26T22:02:50.399Z,89.10
2022-08-26T22:05:19.244Z,88.70
2022-08-26T22:07:47.591Z,88.18
2022-08-26T22:10:15.866Z,87.64
2022-08-26T22:12:44.363Z,87.34
2022-08-26T22:15:12.958Z,87.42
2022-08-26T22:17:41.341Z,87.12
2022-08-26T22:20:16.629Z,87.05
2022-08-26T22:22:45.193Z,86.80
2022-08-26T22:25:13.683Z,86.63
2022-08-26T22:27:42.825Z,85.68
2022-08-26T22:30:12.042Z,85.55
2022-08-26T22:32:40.441Z,85.08
2022-08-26T22:35:28.008Z,84.48
2022-08-26T22:37:58.911Z,84.00
2022-08-26T22:40:27.358Z,83.71
2022-08-26T22:43:00.059Z,83.60
2022-08-26T22:45:29.309Z,83.34
2022-08-26T22:47:58.554Z,83.13
2022-08-26T22:50:28.416Z,83.01
2022-08-26T22:52:56.908Z,82.85
2022-08-26T22:55:25.442Z,82.45
2022-08-26T22:57:53.962Z,82.60
2022-08-26T23:00:28.996Z,82.63
2022-08-26T23:03:01.515Z,82.52
2022-08-26T23:05:31.660Z,82.24
2022-08-26T23:08:00.556Z,82.28
2022-08-26T23:10:29.110Z,82.36
2022-08-26T23:12:57.523Z,82.23
2022-08-26T23:15:26.435Z,82.40
2022-08-26T23:17:58.731Z,82.42
2022-08-26T23:20:28.754Z,82.37
2022-08-26T23:22:58.632Z,82.55
2022-08-26T23:25:28.038Z,82.58
2022-08-26T23:27:57.388Z,82.70
2022-08-26T23:30:28.064Z,83.03
2022-08-26T23:32:56.515Z,83.25
2022-08-26T23:35:25.159Z,83.39
2022-08-26T23:37:53.594Z,83.55
2022-08-26T23:40:27.060Z,83.45
2022-08-26T23:42:56.856Z,83.55
2022-08-26T23:45:26.038Z,83.55
2022-08-26T23:47:54.796Z,83.69
2022-08-26T23:50:47.034Z,83.74
2022-08-26T23:53:19.493Z,83.98
2022-08-26T23:55:51.115Z,84.10
2022-08-26T23:58:21.060Z,84.33
